Time;durP1;ratioP1;P1;durP2;ratioP2;P2;SDS_P1;SDS_P2;PMS_P1;PMS_P2;Temp;Humidity;BMP_temperature;BMP_pressure;BME280_temperature;BME280_humidity;BME280_pressure;Samples;Min_cycle;Max_cycle;Signal;HPM_P1;HPM_P2
2022/05/12 00:02:18;;;;;;;7.38;3.60;;;;;;;;;;4973554;28;20062;-66
2022/05/12 00:04:49;;;;;;;12.13;4.45;;;;;;;;;;4989472;28;20070;-66
2022/05/12 00:07:21;;;;;;;7.47;4.30;;;;;;;;;;4957523;28;20062;-66
2022/05/12 00:09:52;;;;;;;10.27;4.43;;;;;;;;;;4989432;28;20065;-66
2022/05/12 00:12:24;;;;;;;8.65;4.22;;;;;;;;;;4989427;28;20050;-66
2022/05/12 00:14:55;;;;;;;8.00;4.47;;;;;;;;;;4989402;28;20495;-66
2022/05/12 00:17:25;;;;;;;8.32;4.18;;;;;;;;;;4994895;28;20057;-65
2022/05/12 00:19:56;;;;;;;8.90;3.90;;;;;;;;;;4980088;28;20544;-66
2022/05/12 00:22:27;;;;;;;10.10;4.43;;;;;;;;;;5028784;28;20057;-66
2022/05/12 00:24:58;;;;;;;8.25;4.18;;;;;;;;;;4995772;28;20049;-66
2022/05/12 00:27:29;;;;;;;11.07;4.45;;;;;;;;;;5012000;28;20049;-67
2022/05/12 00:29:59;;;;;;;7.30;4.22;;;;;;;;;;5039429;28;20060;-66
2022/05/12 00:32:30;;;;;;;6.90;3.13;;;;;;;;;;5048562;28;20402;-66
2022/05/12 00:35:01;;;;;;;9.10;3.63;;;;;;;;;;5026251;28;20420;-66
2022/05/12 00:37:32;;;;;;;9.45;3.88;;;;;;;;;;5080673;28;20052;-66
2022/05/12 00:40:04;;;;;;;13.27;4.80;;;;;;;;;;5088535;28;20048;-66
2022/05/12 00:42:34;;;;;;;10.55;5.20;;;;;;;;;;5088748;28;20072;-67
2022/05/12 00:45:06;;;;;;;12.52;6.13;;;;;;;;;;5054873;28;20551;-66
2022/05/12 00:47:37;;;;;;;11.73;5.85;;;;;;;;;;5088695;28;20056;-66
2022/05/12 00:50:08;;;;;;;11.18;5.45;;;;;;;;;;5072106;28;20048;-66
2022/05/12 00:52:40;;;;;;;13.40;5.10;;;;;;;;;;5091033;28;20095;-66
2022/05/12 00:55:19;;;;;;;7.47;4.22;;;;;;;;;;5092542;28;20044;-67
2022/05/12 00:57:52;;;;;;;8.43;4.35;;;;;;;;;;5092461;28;20048;-66
2022/05/12 01:00:24;;;;;;;7.15;3.38;;;;;;;;;;5092395;28;20530;-66
2022/05/12 01:02:58;;;;;;;8.65;4.53;;;;;;;;;;5076265;28;20078;-66
2022/05/12 01:05:31;;;;;;;9.35;4.30;;;;;;;;;;5092580;28;20056;-67
2022/05/12 01:08:02;;;;;;;9.38;4.47;;;;;;;;;;5051895;28;20051;-66
2022/05/12 01:10:33;;;;;;;8.07;4.60;;;;;;;;;;5002421;28;20053;-66
2022/05/12 01:13:04;;;;;;;10.35;4.82;;;;;;;;;;5051894;28;20053;-66
2022/05/12 01:15:34;;;;;;;8.45;4.32;;;;;;;;;;5015683;28;20056;-66
2022/05/12 01:18:15;;;;;;;8.77;4.03;;;;;;;;;;5032101;28;20060;-67
2022/05/12 01:20:47;;;;;;;6.95;3.70;;;;;;;;;;5015546;28;20061;-66
2022/05/12 01:23:22;;;;;;;8.13;4.28;;;;;;;;;;5032035;28;20520;-66
2022/05/12 01:26:02;;;;;;;7.93;4.25;;;;;;;;;;4983643;28;20069;-66
2022/05/12 01:28:33;;;;;;;8.30;3.38;;;;;;;;;;5031852;28;20437;-66
2022/05/12 01:31:06;;;;;;;7.07;3.85;;;;;;;;;;5015786;28;20053;-67
2022/05/12 01:33:36;;;;;;;6.97;4.05;;;;;;;;;;5031794;28;20060;-67
2022/05/12 01:36:07;;;;;;;11.13;4.07;;;;;;;;;;5031594;28;20049;-67
2022/05/12 01:38:38;;;;;;;8.25;4.40;;;;;;;;;;5031577;28;20191;-66
2022/05/12 01:41:09;;;;;;;7.65;4.05;;;;;;;;;;4982549;28;20053;-66
2022/05/12 01:43:40;;;;;;;7.85;4.68;;;;;;;;;;5031628;28;20046;-66
2022/05/12 01:46:10;;;;;;;13.02;4.70;;;;;;;;;;5060288;28;20064;-67
2022/05/12 01:48:42;;;;;;;7.45;3.88;;;;;;;;;;5071565;28;20140;-66
2022/05/12 01:51:13;;;;;;;8.07;3.45;;;;;;;;;;5071346;28;20381;-67
2022/05/12 01:53:43;;;;;;;7.85;3.92;;;;;;;;;;5087394;28;20083;-66
2022/05/12 01:56:14;;;;;;;8.32;4.07;;;;;;;;;;5092711;28;20040;-66
2022/05/12 01:58:45;;;;;;;7.30;3.53;;;;;;;;;;5051276;28;20408;-66
2022/05/12 02:01:15;;;;;;;11.68;4.28;;;;;;;;;;5050951;28;20107;-66
2022/05/12 02:03:46;;;;;;;10.35;4.80;;;;;;;;;;5014988;28;20056;-66
2022/05/12 02:06:16;;;;;;;10.75;4.45;;;;;;;;;;5031062;28;20049;-66
2022/05/12 02:08:47;;;;;;;10.30;4.82;;;;;;;;;;5011172;28;20065;-67
2022/05/12 02:11:18;;;;;;;9.98;4.68;;;;;;;;;;4962842;28;20049;-67
2022/05/12 02:13:49;;;;;;;8.50;3.75;;;;;;;;;;4958904;28;20426;-66
2022/05/12 02:16:19;;;;;;;10.65;4.45;;;;;;;;;;4991492;28;20085;-66
2022/05/12 02:18:50;;;;;;;7.68;3.95;;;;;;;;;;4991681;28;20058;-66
2022/05/12 02:21:21;;;;;;;8.40;4.35;;;;;;;;;;4991302;28;20058;-67
2022/05/12 02:23:52;;;;;;;9.57;3.78;;;;;;;;;;4991515;28;20054;-67
2022/05/12 02:26:22;;;;;;;8.57;4.25;;;;;;;;;;4991489;28;20062;-67
2022/05/12 02:28:53;;;;;;;9.85;4.65;;;;;;;;;;4991323;28;20065;-67
2022/05/12 02:31:24;;;;;;;11.23;4.82;;;;;;;;;;4952166;28;20051;-66
2022/05/12 02:33:55;;;;;;;9.65;4.03;;;;;;;;;;4952263;28;20055;-66
2022/05/12 02:36:25;;;;;;;8.07;4.13;;;;;;;;;;4933220;29;20052;-66
2022/05/12 02:38:56;;;;;;;9.32;3.90;;;;;;;;;;4933393;29;20063;-66
2022/05/12 02:41:27;;;;;;;9.45;4.50;;;;;;;;;;4895789;29;20058;-66
2022/05/12 02:43:58;;;;;;;9.18;4.30;;;;;;;;;;4952564;29;20055;-66
2022/05/12 02:46:28;;;;;;;7.75;4.10;;;;;;;;;;4962236;28;20213;-66
2022/05/12 02:48:59;;;;;;;7.50;4.25;;;;;;;;;;4990925;28;20062;-66
2022/05/12 02:51:30;;;;;;;11.07;4.03;;;;;;;;;;5011050;28;20128;-66
2022/05/12 02:54:00;;;;;;;8.45;4.10;;;;;;;;;;5030184;28;20053;-66
2022/05/12 02:56:30;;;;;;;9.75;4.38;;;;;;;;;;5030110;28;20049;-66
2022/05/12 02:59:01;;;;;;;10.52;4.30;;;;;;;;;;5030282;28;20096;-66
2022/05/12 03:01:33;;;;;;;11.65;3.80;;;;;;;;;;5009638;28;20421;-66
2022/05/12 03:04:03;;;;;;;12.07;5.15;;;;;;;;;;5010353;28;20065;-66
2022/05/12 03:06:34;;;;;;;10.80;4.68;;;;;;;;;;4962610;28;20063;-66
2022/05/12 03:09:06;;;;;;;9.65;4.63;;;;;;;;;;5020418;28;20061;-66
2022/05/12 03:11:36;;;;;;;8.05;4.45;;;;;;;;;;5009901;28;20050;-66
2022/05/12 03:14:07;;;;;;;9.25;4.32;;;;;;;;;;5009608;28;20068;-66
2022/05/12 03:16:37;;;;;;;8.85;4.55;;;;;;;;;;4957830;28;20042;-66
2022/05/12 03:19:09;;;;;;;11.15;4.47;;;;;;;;;;4990329;28;20411;-66
2022/05/12 03:21:39;;;;;;;8.15;4.40;;;;;;;;;;4990419;28;20062;-66
2022/05/12 03:24:10;;;;;;;11.43;4.68;;;;;;;;;;4957995;28;20054;-66
2022/05/12 03:26:40;;;;;;;7.13;4.20;;;;;;;;;;5001070;28;20057;-66
2022/05/12 03:29:11;;;;;;;9.05;5.70;;;;;;;;;;4993533;28;20473;-66
2022/05/12 03:31:42;;;;;;;8.52;4.57;;;;;;;;;;4993328;28;20058;-66
2022/05/12 03:34:12;;;;;;;9.52;4.28;;;;;;;;;;5009901;28;20062;-66
2022/05/12 03:36:43;;;;;;;9.98;4.47;;;;;;;;;;5009560;28;20120;-66
2022/05/12 03:39:13;;;;;;;9.50;4.78;;;;;;;;;;5010547;28;20053;-66
2022/05/12 03:41:44;;;;;;;11.05;4.85;;;;;;;;;;5029613;28;20421;-66
2022/05/12 03:47:04;;;;;;;8.43;4.43;;;;;;;;;;4996289;28;20053;-66
2022/05/12 03:49:35;;;;;;;9.35;4.25;;;;;;;;;;4996241;28;20057;-66
2022/05/12 03:52:06;;;;;;;9.57;3.63;;;;;;;;;;5029115;28;20634;-66
2022/05/12 03:54:36;;;;;;;8.07;4.53;;;;;;;;;;5054918;28;20052;-66
2022/05/12 03:57:06;;;;;;;8.88;4.38;;;;;;;;;;5035553;28;20067;-66
2022/05/12 03:59:40;;;;;;;9.80;4.57;;;;;;;;;;5069147;28;20040;-66
2022/05/12 04:02:15;;;;;;;10.05;4.28;;;;;;;;;;5052009;28;20048;-66
2022/05/12 04:04:48;;;;;;;10.82;4.32;;;;;;;;;;5019382;28;20049;-67
2022/05/12 04:07:21;;;;;;;9.60;4.40;;;;;;;;;;5035500;28;20052;-66
2022/05/12 04:09:52;;;;;;;12.77;4.72;;;;;;;;;;5035479;28;20064;-66
2022/05/12 04:12:23;;;;;;;8.27;4.55;;;;;;;;;;5018883;28;20061;-66
2022/05/12 04:14:53;;;;;;;9.85;4.97;;;;;;;;;;5068927;28;20041;-66
2022/05/12 04:17:24;;;;;;;8.85;4.38;;;;;;;;;;5085106;28;20052;-66
2022/05/12 04:19:55;;;;;;;9.52;4.63;;;;;;;;;;5068586;28;20052;-66
2022/05/12 04:22:25;;;;;;;12.65;4.70;;;;;;;;;;5068474;28;20067;-67
2022/05/12 04:24:56;;;;;;;14.27;4.95;;;;;;;;;;5019170;28;20061;-66
2022/05/12 04:27:27;;;;;;;10.55;4.97;;;;;;;;;;5051575;28;20048;-66
2022/05/12 04:29:57;;;;;;;12.13;5.32;;;;;;;;;;5068637;28;20040;-66
2022/05/12 04:32:29;;;;;;;9.80;4.10;;;;;;;;;;5068430;28;20385;-67
2022/05/12 04:35:12;;;;;;;11.38;5.40;;;;;;;;;;5068554;28;20049;-66
2022/05/12 04:37:49;;;;;;;9.50;4.78;;;;;;;;;;5035216;28;20059;-66
2022/05/12 04:40:24;;;;;;;9.13;5.63;;;;;;;;;;5068606;28;20049;-67
2022/05/12 04:42:58;;;;;;;10.52;4.43;;;;;;;;;;5068416;28;20064;-66
2022/05/12 04:45:31;;;;;;;9.10;4.82;;;;;;;;;;5018924;28;20056;-66
2022/05/12 04:48:03;;;;;;;8.82;4.53;;;;;;;;;;5068451;28;20046;-66
2022/05/12 04:50:36;;;;;;;9.25;4.40;;;;;;;;;;5020554;28;20065;-66
2022/05/12 04:53:08;;;;;;;8.68;4.05;;;;;;;;;;5035363;28;20044;-66
2022/05/12 04:55:39;;;;;;;10.02;4.80;;;;;;;;;;5068459;28;20060;-66
2022/05/12 04:58:09;;;;;;;9.35;4.60;;;;;;;;;;5086490;28;20056;-67
2022/05/12 05:00:43;;;;;;;12.82;4.40;;;;;;;;;;5098050;28;20051;-66
2022/05/12 05:03:15;;;;;;;9.02;4.70;;;;;;;;;;5111257;28;20051;-66
2022/05/12 05:05:49;;;;;;;10.02;4.82;;;;;;;;;;5111689;28;20058;-66
2022/05/12 05:08:22;;;;;;;8.18;4.47;;;;;;;;;;5111195;28;20047;-67
2022/05/12 05:10:55;;;;;;;;;;;;;;;;;;5111826;28;20040;-66
2022/05/12 05:13:26;;;;;;;11.60;4.60;;;;;;;;;;5093684;28;19919;-66
2022/05/12 05:15:57;;;;;;;9.13;4.85;;;;;;;;;;5051648;28;20044;-66
2022/05/12 05:18:27;;;;;;;8.25;4.30;;;;;;;;;;5068167;28;20052;-67
2022/05/12 05:20:58;;;;;;;10.00;4.35;;;;;;;;;;5068160;28;20060;-66
2022/05/12 05:23:28;;;;;;;8.23;4.28;;;;;;;;;;5051885;28;20053;-66
2022/05/12 05:25:59;;;;;;;10.77;5.07;;;;;;;;;;5068162;28;20496;-66
2022/05/12 05:28:31;;;;;;;10.70;4.50;;;;;;;;;;5034623;28;20412;-66
2022/05/12 05:31:01;;;;;;;9.18;4.57;;;;;;;;;;5067913;28;20407;-66
2022/05/12 05:33:32;;;;;;;12.25;5.03;;;;;;;;;;5047742;28;20056;-66
2022/05/12 05:36:03;;;;;;;9.00;4.45;;;;;;;;;;5047862;28;20057;-67
2022/05/12 05:38:34;;;;;;;7.88;4.40;;;;;;;;;;5000761;28;20052;-66
2022/05/12 05:41:04;;;;;;;9.25;4.60;;;;;;;;;;5051832;28;20492;-67
2022/05/12 05:43:35;;;;;;;8.77;4.40;;;;;;;;;;4970497;28;20053;-67
2022/05/12 05:46:06;;;;;;;13.52;5.03;;;;;;;;;;5051197;28;20049;-67
2022/05/12 05:48:43;;;;;;;8.32;5.05;;;;;;;;;;5051382;28;20053;-67
2022/05/12 05:54:02;;;;;;;8.02;4.40;;;;;;;;;;5048573;28;20056;-66
2022/05/12 05:56:33;;;;;;;9.95;4.20;;;;;;;;;;5021685;28;20044;-66
2022/05/12 05:59:03;;;;;;;9.02;4.45;;;;;;;;;;5071340;28;20497;-67
2022/05/12 06:01:34;;;;;;;9.38;3.75;;;;;;;;;;5021123;28;20412;-67
2022/05/12 06:04:05;;;;;;;11.45;4.90;;;;;;;;;;5071389;28;20857;-66
2022/05/12 06:06:36;;;;;;;8.82;4.47;;;;;;;;;;5071410;28;20444;-67
2022/05/12 06:09:06;;;;;;;8.63;4.60;;;;;;;;;;5054808;28;20060;-66
2022/05/12 06:11:36;;;;;;;9.10;4.78;;;;;;;;;;5068350;28;20048;-67
2022/05/12 06:14:08;;;;;;;8.65;4.43;;;;;;;;;;5093866;28;20515;-67
2022/05/12 06:16:39;;;;;;;9.15;3.83;;;;;;;;;;5074820;28;20400;-66
2022/05/12 06:19:10;;;;;;;11.13;4.28;;;;;;;;;;5057800;28;20492;-67
2022/05/12 06:21:40;;;;;;;10.63;4.30;;;;;;;;;;5093495;28;20048;-67
2022/05/12 06:24:11;;;;;;;8.68;4.32;;;;;;;;;;5093574;28;20043;-66
2022/05/12 06:26:41;;;;;;;10.82;4.40;;;;;;;;;;5093207;28;20048;-67
2022/05/12 06:29:17;;;;;;;7.97;3.95;;;;;;;;;;5093319;28;20621;-66
2022/05/12 06:31:48;;;;;;;8.05;3.47;;;;;;;;;;5093327;28;20391;-67
2022/05/12 06:34:19;;;;;;;7.90;4.93;;;;;;;;;;5057766;28;20081;-66
2022/05/12 06:36:51;;;;;;;8.27;3.65;;;;;;;;;;5093184;28;20395;-66
2022/05/12 06:39:22;;;;;;;8.05;4.22;;;;;;;;;;5093236;28;20059;-66
2022/05/12 06:41:53;;;;;;;7.60;4.47;;;;;;;;;;5091802;28;20047;-66
2022/05/12 06:44:44;;;;;;;10.07;4.55;;;;;;;;;;5041732;28;20051;-66
2022/05/12 06:47:15;;;;;;;7.70;3.58;;;;;;;;;;5070390;28;20416;-66
2022/05/12 06:49:51;;;;;;;11.65;4.75;;;;;;;;;;5069439;28;20052;-67
2022/05/12 06:52:21;;;;;;;7.20;3.60;;;;;;;;;;5070130;28;20428;-66
2022/05/12 06:54:52;;;;;;;8.35;4.53;;;;;;;;;;5036996;28;20052;-66
2022/05/12 06:57:27;;;;;;;8.02;4.13;;;;;;;;;;5036804;28;20056;-66
2022/05/12 06:59:58;;;;;;;9.68;3.95;;;;;;;;;;5037401;28;20052;-66
2022/05/12 07:02:28;;;;;;;9.02;4.90;;;;;;;;;;5069987;28;20063;-66
2022/05/12 07:04:59;;;;;;;10.77;5.05;;;;;;;;;;5020578;28;20056;-66
2022/05/12 07:07:30;;;;;;;9.18;4.40;;;;;;;;;;5053669;28;20055;-66
2022/05/12 07:10:01;;;;;;;8.98;4.15;;;;;;;;;;5069977;28;20056;-66
2022/05/12 07:12:31;;;;;;;10.73;4.40;;;;;;;;;;5069757;28;20055;-66
2022/05/12 07:15:02;;;;;;;10.38;4.60;;;;;;;;;;5053436;28;20063;-66
2022/05/12 07:17:37;;;;;;;12.00;4.50;;;;;;;;;;5019955;28;20056;-66
2022/05/12 07:28:36;;;;;;;9.80;4.47;;;;;;;;;;5092203;28;20423;-66
2022/05/12 07:31:09;;;;;;;7.88;3.85;;;;;;;;;;5092215;28;20400;-66
2022/05/12 07:33:43;;;;;;;11.95;5.07;;;;;;;;;;5091963;28;20051;-66
2022/05/12 07:36:18;;;;;;;9.52;4.90;;;;;;;;;;5069085;28;20059;-66
2022/05/12 07:38:49;;;;;;;10.80;5.25;;;;;;;;;;5069247;28;20479;-66
2022/05/12 07:41:20;;;;;;;11.80;5.55;;;;;;;;;;5068878;28;20056;-66
2022/05/12 07:43:51;;;;;;;11.57;4.45;;;;;;;;;;5069075;28;20048;-66
2022/05/12 07:46:25;;;;;;;9.50;4.55;;;;;;;;;;5019309;28;20063;-66
2022/05/12 07:48:57;;;;;;;10.32;4.88;;;;;;;;;;5069250;28;20067;-66
2022/05/12 07:51:27;;;;;;;13.10;4.45;;;;;;;;;;5069042;28;20052;-66
2022/05/12 07:53:58;;;;;;;9.40;4.60;;;;;;;;;;5068962;28;20068;-66
2022/05/12 07:56:30;;;;;;;11.27;4.97;;;;;;;;;;5052560;28;20063;-66
2022/05/12 07:59:00;;;;;;;14.68;4.47;;;;;;;;;;5069330;28;20570;-66
2022/05/12 08:01:31;;;;;;;9.40;4.57;;;;;;;;;;5068407;28;20090;-66
2022/05/12 08:04:03;;;;;;;10.93;4.00;;;;;;;;;;5068940;28;20400;-66
2022/05/12 08:06:34;;;;;;;9.05;4.90;;;;;;;;;;5068782;28;20059;-66
2022/05/12 08:09:04;;;;;;;10.70;4.30;;;;;;;;;;5068766;28;20071;-66
2022/05/12 08:11:35;;;;;;;8.40;4.38;;;;;;;;;;5068614;28;20053;-66
2022/05/12 08:14:06;;;;;;;11.13;4.97;;;;;;;;;;5060801;28;20143;-66
2022/05/12 08:16:39;;;;;;;6.47;3.47;;;;;;;;;;5052437;28;20451;-66
2022/05/12 08:19:09;;;;;;;;;;;;;;;;;;5069254;28;20059;-66
2022/05/12 08:21:39;;;;;;;7.00;3.65;;;;;;;;;;5028478;28;20619;-66
2022/05/12 08:24:10;;;;;;;7.82;4.00;;;;;;;;;;5028798;28;20060;-66
2022/05/12 08:26:42;;;;;;;7.85;4.10;;;;;;;;;;5028780;28;20054;-66
2022/05/12 08:29:13;;;;;;;8.52;4.53;;;;;;;;;;5028823;28;20050;-66
2022/05/12 08:31:44;;;;;;;10.50;4.82;;;;;;;;;;4988949;28;20050;-66
2022/05/12 08:34:14;;;;;;;7.75;4.28;;;;;;;;;;4989277;28;20058;-66
2022/05/12 08:36:45;;;;;;;9.45;4.68;;;;;;;;;;4989103;28;20054;-66
2022/05/12 08:39:17;;;;;;;7.00;3.65;;;;;;;;;;4926125;28;20058;-66
2022/05/12 08:42:04;;;;;;;7.40;4.13;;;;;;;;;;4989007;28;20211;-66
2022/05/12 08:44:39;;;;;;;9.07;4.35;;;;;;;;;;4915456;28;20062;-67
2022/05/12 08:47:15;;;;;;;11.02;4.97;;;;;;;;;;4972697;28;20054;-66
2022/05/12 08:49:51;;;;;;;7.45;4.30;;;;;;;;;;4989005;28;20058;-67
2022/05/12 08:52:33;;;;;;;11.38;4.38;;;;;;;;;;5003828;28;20050;-66
2022/05/12 08:55:14;;;;;;;8.75;4.53;;;;;;;;;;5008603;28;20045;-66
2022/05/12 08:58:05;;;;;;;10.30;4.70;;;;;;;;;;5008534;28;20054;-66
2022/05/12 09:00:54;;;;;;;12.90;4.82;;;;;;;;;;5048203;28;20168;-66
2022/05/12 09:04:09;;;;;;;8.38;4.40;;;;;;;;;;5048083;28;20057;-66
2022/05/12 09:06:49;;;;;;;8.88;3.97;;;;;;;;;;5008263;28;20513;-66
2022/05/12 09:09:32;;;;;;;7.72;4.18;;;;;;;;;;5017974;28;20072;-66
2022/05/12 09:12:11;;;;;;;8.48;4.63;;;;;;;;;;4995341;28;20623;-67
2022/05/12 09:14:50;;;;;;;8.25;4.85;;;;;;;;;;5032288;28;20056;-67
2022/05/12 09:17:24;;;;;;;8.45;4.85;;;;;;;;;;5015748;28;20056;-67
2022/05/12 09:19:55;;;;;;;8.25;4.72;;;;;;;;;;5032003;28;20045;-66
2022/05/12 09:22:28;;;;;;;8.70;5.05;;;;;;;;;;5031752;28;20060;-66
2022/05/12 09:24:59;;;;;;;10.70;5.28;;;;;;;;;;5031972;28;20521;-67
2022/05/12 09:27:34;;;;;;;11.90;5.30;;;;;;;;;;4998897;28;20061;-66
2022/05/12 09:30:10;;;;;;;9.23;5.03;;;;;;;;;;5031787;28;20053;-66
2022/05/12 09:32:41;;;;;;;8.32;4.63;;;;;;;;;;4982430;28;20045;-67
2022/05/12 09:35:11;;;;;;;8.43;4.60;;;;;;;;;;4992225;28;20059;-66
2022/05/12 09:37:43;;;;;;;10.13;5.28;;;;;;;;;;4975982;28;20087;-66
2022/05/12 09:40:21;;;;;;;9.52;4.47;;;;;;;;;;4992293;28;20058;-66
2022/05/12 09:42:56;;;;;;;8.93;4.53;;;;;;;;;;4939748;28;20046;-66
2022/05/12 09:45:34;;;;;;;9.85;4.95;;;;;;;;;;5011784;28;20054;-66
2022/05/12 09:48:29;;;;;;;11.13;4.88;;;;;;;;;;4963278;28;20081;-64
2022/05/12 09:51:36;;;;;;;10.15;5.22;;;;;;;;;;4921537;29;20062;-64
2022/05/12 09:54:15;;;;;;;11.93;4.97;;;;;;;;;;4914890;29;20067;-65
2022/05/12 09:56:58;;;;;;;13.93;4.43;;;;;;;;;;4914832;29;20063;-65
2022/05/12 09:59:33;;;;;;;8.43;4.65;;;;;;;;;;4868234;29;20520;-64
2022/05/12 10:02:11;;;;;;;9.60;4.32;;;;;;;;;;4864448;29;20402;-65
2022/05/12 10:10:27;;;;;;;10.05;5.07;;;;;;;;;;4880147;29;20663;-66
2022/05/12 10:13:06;;;;;;;16.80;5.32;;;;;;;;;;4876990;29;20061;-66
2022/05/12 10:15:39;;;;;;;12.68;4.88;;;;;;;;;;4846213;29;20068;-65
2022/05/12 10:18:09;;;;;;;10.27;4.30;;;;;;;;;;4861343;29;20662;-66
2022/05/12 10:20:48;;;;;;;11.07;5.43;;;;;;;;;;4866640;29;20132;-66
2022/05/12 10:23:37;;;;;;;22.33;5.70;;;;;;;;;;4858488;29;20049;-66
2022/05/12 10:26:20;;;;;;;13.88;6.38;;;;;;;;;;4857572;29;20062;-66
2022/05/12 10:29:00;;;;;;;44.63;20.58;;;;;;;;;;4945043;28;20065;-66
2022/05/12 10:31:49;;;;;;;26.90;8.77;;;;;;;;;;4994568;28;20167;-66
2022/05/12 10:35:15;;;;;;;23.88;9.68;;;;;;;;;;4952319;29;20058;-66
2022/05/12 10:37:54;;;;;;;25.70;11.05;;;;;;;;;;4913602;29;20048;-66
2022/05/12 10:40:43;;;;;;;18.52;7.88;;;;;;;;;;4883044;29;20055;-66
2022/05/12 10:43:42;;;;;;;14.25;5.60;;;;;;;;;;4882513;29;20048;-65
2022/05/12 10:46:37;;;;;;;21.45;8.20;;;;;;;;;;4866537;29;20060;-65
2022/05/12 10:49:20;;;;;;;16.52;5.55;;;;;;;;;;4895200;29;20052;-65
2022/05/12 10:51:59;;;;;;;15.55;6.50;;;;;;;;;;4932932;29;20067;-65
2022/05/12 10:54:48;;;;;;;16.30;6.03;;;;;;;;;;4932948;29;20051;-65
2022/05/12 10:57:47;;;;;;;16.25;4.75;;;;;;;;;;4901269;29;20440;-65
2022/05/12 11:00:48;;;;;;;13.02;5.63;;;;;;;;;;4932719;29;20059;-65
2022/05/12 11:03:30;;;;;;;16.80;6.43;;;;;;;;;;4885781;29;20571;-65
2022/05/12 11:06:05;;;;;;;22.48;8.77;;;;;;;;;;4932776;29;20060;-65
2022/05/12 11:08:48;;;;;;;20.45;8.40;;;;;;;;;;4932957;29;20480;-65
2022/05/12 11:11:33;;;;;;;19.35;8.38;;;;;;;;;;4941194;28;20058;-65
2022/05/12 11:14:22;;;;;;;14.75;6.97;;;;;;;;;;4983883;28;20057;-65
2022/05/12 11:17:09;;;;;;;13.82;6.68;;;;;;;;;;5016925;28;20084;-65
2022/05/12 11:19:48;;;;;;;16.67;7.03;;;;;;;;;;5049637;28;20044;-65
2022/05/12 11:22:36;;;;;;;;;;;;;;;;;;5050196;28;20152;-65
2022/05/12 11:25:19;;;;;;;12.88;6.15;;;;;;;;;;5016356;28;19932;-65
2022/05/12 11:31:26;;;;;;;10.45;5.18;;;;;;;;;;5049479;28;20056;-65
2022/05/12 11:34:04;;;;;;;10.20;5.55;;;;;;;;;;4990040;28;20554;-65
2022/05/12 11:36:47;;;;;;;11.48;5.03;;;;;;;;;;4989570;28;20505;-65
2022/05/12 11:39:26;;;;;;;9.02;4.97;;;;;;;;;;4990229;28;20061;-65
2022/05/12 11:42:18;;;;;;;9.63;5.15;;;;;;;;;;4957794;28;20130;-65
2022/05/12 11:45:01;;;;;;;12.32;5.22;;;;;;;;;;4989856;28;20066;-65
2022/05/12 11:47:50;;;;;;;10.88;5.15;;;;;;;;;;4941597;28;20054;-65
2022/05/12 11:50:47;;;;;;;10.98;5.20;;;;;;;;;;4989706;28;20061;-65
2022/05/12 11:53:28;;;;;;;15.00;6.32;;;;;;;;;;4973460;28;20054;-65
2022/05/12 11:56:05;;;;;;;14.48;6.35;;;;;;;;;;4989608;28;20065;-65
2022/05/12 11:58:48;;;;;;;10.07;5.72;;;;;;;;;;4989095;28;20046;-65
2022/05/12 12:01:21;;;;;;;13.50;5.75;;;;;;;;;;5001835;28;20054;-65
2022/05/12 12:04:00;;;;;;;12.23;4.88;;;;;;;;;;5009354;28;20525;-65
2022/05/12 12:06:46;;;;;;;11.65;6.15;;;;;;;;;;5009213;28;20046;-65
2022/05/12 12:09:34;;;;;;;;;;;;;;;;;;5009808;28;20046;-65
2022/05/12 12:12:08;;;;;;;15.18;6.35;;;;;;;;;;5083786;28;20383;-65
2022/05/12 12:14:51;;;;;;;12.15;5.97;;;;;;;;;;5091495;28;20048;-65
2022/05/12 12:17:35;;;;;;;12.15;5.75;;;;;;;;;;5091033;28;20043;-65
2022/05/12 12:20:31;;;;;;;11.88;5.97;;;;;;;;;;5091303;28;20051;-65
2022/05/12 12:23:33;;;;;;;12.32;5.20;;;;;;;;;;5072639;28;20046;-65
2022/05/12 12:26:36;;;;;;;12.07;5.68;;;;;;;;;;5055646;28;20048;-65
2022/05/12 12:29:10;;;;;;;12.25;6.20;;;;;;;;;;5055269;28;20087;-65
2022/05/12 12:31:47;;;;;;;9.70;4.90;;;;;;;;;;5091314;28;20044;-65
2022/05/12 12:34:45;;;;;;;10.82;5.10;;;;;;;;;;5091091;28;20067;-65
2022/05/12 12:37:41;;;;;;;10.80;5.32;;;;;;;;;;5090966;28;20491;-65
2022/05/12 12:40:33;;;;;;;17.20;7.47;;;;;;;;;;5072160;28;20059;-65
2022/05/12 12:43:27;;;;;;;12.35;5.97;;;;;;;;;;5091014;28;20040;-65
2022/05/12 12:45:59;;;;;;;10.20;5.13;;;;;;;;;;5055544;28;20060;-65
2022/05/12 12:48:38;;;;;;;10.15;5.53;;;;;;;;;;5093008;28;20044;-65
2022/05/12 12:51:10;;;;;;;9.25;4.88;;;;;;;;;;5094021;28;20040;-65
2022/05/12 12:56:42;;;;;;;9.10;4.82;;;;;;;;;;5052245;28;20061;-65
2022/05/12 12:59:21;;;;;;;;;;;;;;;;;;5052688;28;20049;-66
2022/05/12 13:02:01;;;;;;;15.15;8.32;;;;;;;;;;5035722;28;19921;-65
2022/05/12 13:04:35;;;;;;;12.88;7.75;;;;;;;;;;5018992;28;20056;-65
2022/05/12 13:07:11;;;;;;;14.35;6.60;;;;;;;;;;5052000;28;20049;-65
2022/05/12 13:09:52;;;;;;;11.75;5.95;;;;;;;;;;5036012;28;20056;-65
2022/05/12 13:12:28;;;;;;;11.73;6.25;;;;;;;;;;5011919;28;20053;-65
2022/05/12 13:15:00;;;;;;;12.30;7.45;;;;;;;;;;5012264;28;20473;-65
2022/05/12 13:17:38;;;;;;;10.10;5.22;;;;;;;;;;5012212;28;20442;-65
2022/05/12 13:20:32;;;;;;;11.93;6.78;;;;;;;;;;4996376;28;20053;-65
2022/05/12 13:23:06;;;;;;;10.05;5.30;;;;;;;;;;4995458;28;20056;-65
2022/05/12 13:25:40;;;;;;;12.77;8.27;;;;;;;;;;4963724;28;20060;-65
2022/05/12 13:28:21;;;;;;;18.35;11.88;;;;;;;;;;5011813;28;20054;-65
2022/05/12 13:31:14;;;;;;;9.63;5.15;;;;;;;;;;4991988;28;20066;-65
2022/05/12 13:34:14;;;;;;;9.02;5.25;;;;;;;;;;4992370;28;20046;-65
2022/05/12 13:36:48;;;;;;;14.02;8.25;;;;;;;;;;4902547;29;20763;-66
2022/05/12 13:39:55;;;;;;;15.55;7.32;;;;;;;;;;4934293;29;20055;-65
2022/05/12 13:42:43;;;;;;;10.43;5.70;;;;;;;;;;4884266;29;20064;-65
2022/05/12 13:45:24;;;;;;;10.95;5.70;;;;;;;;;;4883961;29;20059;-65
2022/05/12 13:47:59;;;;;;;10.48;5.38;;;;;;;;;;4896029;29;20532;-65
2022/05/12 13:50:45;;;;;;;9.80;5.15;;;;;;;;;;4922803;29;20059;-65
2022/05/12 13:53:32;;;;;;;9.63;5.68;;;;;;;;;;4934120;29;20205;-66
2022/05/12 13:56:23;;;;;;;9.73;5.43;;;;;;;;;;4902458;29;20046;-65
2022/05/12 13:58:55;;;;;;;12.40;5.78;;;;;;;;;;4933735;29;20055;-65
2022/05/12 14:01:32;;;;;;;9.05;4.72;;;;;;;;;;4933652;29;20048;-65
2022/05/12 14:04:14;;;;;;;7.78;4.68;;;;;;;;;;4933971;29;20054;-65
2022/05/12 14:06:59;;;;;;;10.02;5.40;;;;;;;;;;4950684;29;20055;-65
2022/05/12 14:09:34;;;;;;;11.50;6.13;;;;;;;;;;4953135;29;20059;-64
2022/05/12 14:12:28;;;;;;;11.32;6.25;;;;;;;;;;4942729;28;20050;-65
2022/05/12 14:20:36;;;;;;;9.18;4.47;;;;;;;;;;5050976;28;20620;-65
2022/05/12 14:23:07;;;;;;;21.90;11.43;;;;;;;;;;5034489;28;20472;-65
2022/05/12 14:25:39;;;;;;;15.23;7.15;;;;;;;;;;5062891;28;20072;-65
2022/05/12 14:28:09;;;;;;;16.15;8.02;;;;;;;;;;5072945;28;20036;-65
2022/05/12 14:30:40;;;;;;;13.23;7.00;;;;;;;;;;5072118;28;20045;-65
2022/05/12 14:33:11;;;;;;;17.95;8.07;;;;;;;;;;5073266;28;20477;-64
2022/05/12 14:35:42;;;;;;;24.85;10.98;;;;;;;;;;5073130;28;20045;-65
2022/05/12 14:38:13;;;;;;;21.65;7.90;;;;;;;;;;5072772;28;20400;-65
2022/05/12 14:40:44;;;;;;;26.55;11.73;;;;;;;;;;5053947;28;20048;-64
2022/05/12 14:43:15;;;;;;;26.48;9.75;;;;;;;;;;5072808;28;20036;-65
2022/05/12 14:45:47;;;;;;;21.27;9.32;;;;;;;;;;5073016;28;20055;-65
2022/05/12 14:48:18;;;;;;;24.05;10.73;;;;;;;;;;5072759;28;20049;-65
2022/05/12 14:50:49;;;;;;;18.60;8.25;;;;;;;;;;5070663;28;20412;-64
2022/05/12 14:53:26;;;;;;;13.23;6.45;;;;;;;;;;5072459;28;20045;-65
2022/05/12 14:55:56;;;;;;;12.65;6.07;;;;;;;;;;5072548;28;20052;-64
2022/05/12 14:58:27;;;;;;;12.98;6.53;;;;;;;;;;5053617;28;20048;-64
2022/05/12 15:00:57;;;;;;;10.82;5.95;;;;;;;;;;5089874;28;20485;-65
2022/05/12 15:03:31;;;;;;;13.60;6.85;;;;;;;;;;5073812;28;20052;-64
2022/05/12 15:06:02;;;;;;;11.88;6.25;;;;;;;;;;5090093;28;20052;-65
2022/05/12 15:08:33;;;;;;;11.05;5.18;;;;;;;;;;5056827;28;20578;-64
2022/05/12 15:11:04;;;;;;;11.77;5.68;;;;;;;;;;5089505;28;20048;-64
2022/05/12 15:13:34;;;;;;;7.88;4.65;;;;;;;;;;5089639;28;20052;-64
2022/05/12 15:16:07;;;;;;;13.00;6.13;;;;;;;;;;5090201;28;20052;-64
2022/05/12 15:18:39;;;;;;;11.05;5.18;;;;;;;;;;5089723;28;20067;-65
2022/05/12 15:21:09;;;;;;;13.25;7.70;;;;;;;;;;5090077;28;20052;-65
2022/05/12 15:23:41;;;;;;;9.75;5.80;;;;;;;;;;5089697;28;20044;-65
2022/05/12 15:26:15;;;;;;;10.00;5.00;;;;;;;;;;5089849;28;20059;-65
2022/05/12 15:28:47;;;;;;;11.25;5.70;;;;;;;;;;5055908;28;20052;-64
2022/05/12 15:31:18;;;;;;;10.25;5.45;;;;;;;;;;5039714;28;20052;-64
2022/05/12 15:33:49;;;;;;;11.15;4.40;;;;;;;;;;5089410;28;20420;-64
2022/05/12 15:36:29;;;;;;;10.57;5.07;;;;;;;;;;5039236;28;20195;-64
2022/05/12 15:39:00;;;;;;;8.48;4.90;;;;;;;;;;5077255;28;20052;-65
2022/05/12 15:41:31;;;;;;;9.10;5.32;;;;;;;;;;5069531;28;20056;-65
2022/05/12 15:44:02;;;;;;;8.63;4.80;;;;;;;;;;5071563;28;20040;-64
2022/05/12 15:46:34;;;;;;;6.57;4.30;;;;;;;;;;5069348;28;20060;-65
2022/05/12 15:49:15;;;;;;;7.63;4.85;;;;;;;;;;5089046;28;20051;-65
2022/05/12 15:51:46;;;;;;;7.35;4.20;;;;;;;;;;4976780;28;20055;-65
2022/05/12 15:54:18;;;;;;;7.20;4.38;;;;;;;;;;5055633;28;20051;-64
2022/05/12 15:56:49;;;;;;;6.32;4.18;;;;;;;;;;5088973;28;20060;-65
2022/05/12 15:59:20;;;;;;;6.20;3.90;;;;;;;;;;5088745;28;20523;-65